createdAt,value
2023-03-19T00:00:56.303Z,79.76
2023-03-19T00:03:24.235Z,79.54
2023-03-19T00:05:53.813Z,79.82
2023-03-19T00:08:22.678Z,79.64
2023-03-19T00:10:50.947Z,79.63
2023-03-19T00:13:20.590Z,79.72
2023-03-19T00:15:48.523Z,79.93
2023-03-19T00:18:16.311Z,79.72
2023-03-19T00:20:44.789Z,80.01
2023-03-19T00:23:12.694Z,79.99
2023-03-19T00:25:40.500Z,80.13
2023-03-19T00:28:08.258Z,79.93
2023-03-19T00:30:37.503Z,80.04
2023-03-19T00:33:05.420Z,80.02
2023-03-19T00:35:34.356Z,80.03
2023-03-19T00:38:02.239Z,79.91
2023-03-19T00:40:30.523Z,80.26
2023-03-19T00:42:58.296Z,80.07
2023-03-19T00:45:26.407Z,80.22
2023-03-19T00:47:56.300Z,80.11
2023-03-19T00:50:25.068Z,80.05
2023-03-19T00:52:53.219Z,80.03
2023-03-19T00:55:20.963Z,80.34
2023-03-19T01:01:07.379Z,80.05
2023-03-19T01:03:47.209Z,80.23
2023-03-19T01:07:05.738Z,80.33
2023-03-19T01:09:33.728Z,80.28
2023-03-19T01:12:04.760Z,80.42
2023-03-19T01:14:32.839Z,80.47
2023-03-19T01:17:01.088Z,80.21
2023-03-19T01:19:32.434Z,80.13
2023-03-19T01:22:00.618Z,80.31
2023-03-19T01:24:31.721Z,80.42
2023-03-19T01:26:59.958Z,80.43
2023-03-19T01:29:27.838Z,80.62
2023-03-19T01:31:55.990Z,80.33
2023-03-19T01:34:24.238Z,80.42
2023-03-19T01:36:53.412Z,80.47
2023-03-19T01:39:21.286Z,80.50
2023-03-19T01:41:49.166Z,80.62
2023-03-19T01:44:28.460Z,80.63
2023-03-19T01:46:58.599Z,80.57
2023-03-19T01:49:28.964Z,80.59
2023-03-19T01:52:00.372Z,80.61
2023-03-19T01:54:30.613Z,80.63
2023-03-19T01:57:03.374Z,80.52
2023-03-19T01:59:34.825Z,80.68
2023-03-19T02:02:07.822Z,80.75
2023-03-19T02:04:37.871Z,80.61
2023-03-19T02:07:08.678Z,80.73
2023-03-19T02:09:37.414Z,80.58
2023-03-19T02:12:06.106Z,80.74
2023-03-19T02:14:33.850Z,80.72
2023-03-19T02:17:01.860Z,80.78
2023-03-19T02:19:36.687Z,80.83
2023-03-19T02:22:07.464Z,80.88
2023-03-19T02:24:39.955Z,80.84
2023-03-19T02:27:09.678Z,80.83
2023-03-19T02:29:38.972Z,80.89
2023-03-19T02:32:07.188Z,80.98
2023-03-19T02:34:38.343Z,80.82
2023-03-19T02:37:12.593Z,80.90
2023-03-19T02:39:48.158Z,80.95
2023-03-19T02:42:19.782Z,80.91
2023-03-19T02:44:47.745Z,80.95
2023-03-19T02:47:16.175Z,81.08
2023-03-19T02:49:44.030Z,80.86
2023-03-19T02:52:12.278Z,81.16
2023-03-19T02:54:40.151Z,80.82
2023-03-19T02:57:08.243Z,81.05
2023-03-19T02:59:37.431Z,81.15
2023-03-19T03:02:05.397Z,80.89
2023-03-19T03:04:34.724Z,81.22
2023-03-19T03:07:03.356Z,81.09
2023-03-19T03:09:31.128Z,81.03
2023-03-19T03:11:59.055Z,81.11
2023-03-19T03:14:26.968Z,81.29
2023-03-19T03:16:57.348Z,81.41
2023-03-19T03:19:25.407Z,81.25
2023-03-19T03:21:53.233Z,81.68
2023-03-19T03:24:22.030Z,81.08
2023-03-19T03:26:49.876Z,81.11
2023-03-19T03:29:18.232Z,81.27
2023-03-19T03:31:46.320Z,81.40
2023-03-19T03:34:15.694Z,81.14
2023-03-19T03:36:43.462Z,81.16
2023-03-19T03:39:11.810Z,81.35
2023-03-19T03:41:39.634Z,81.38
2023-03-19T03:44:08.498Z,81.56
2023-03-19T03:46:36.743Z,81.38
2023-03-19T03:49:04.685Z,81.47
2023-03-19T03:51:33.969Z,81.24
2023-03-19T03:54:02.209Z,81.47
2023-03-19T03:56:30.168Z,81.25
2023-03-19T03:58:58.005Z,81.48
2023-03-19T04:01:25.861Z,81.75
2023-03-19T04:03:54.341Z,81.43
2023-03-19T04:06:24.135Z,81.65
2023-03-19T04:08:53.258Z,81.50
2023-03-19T04:11:21.768Z,81.70
2023-03-19T04:13:49.519Z,81.77
2023-03-19T04:16:17.577Z,81.50
2023-03-19T04:18:45.508Z,81.49
2023-03-19T04:21:13.672Z,81.76
2023-03-19T04:23:41.718Z,81.52
2023-03-19T04:26:12.286Z,81.59
2023-03-19T04:28:40.320Z,81.66
2023-03-19T04:31:09.322Z,81.63
2023-03-19T04:33:37.596Z,81.72
2023-03-19T04:36:05.834Z,81.79
2023-03-19T04:38:33.755Z,81.66
2023-03-19T04:41:01.686Z,81.87
2023-03-19T04:43:30.967Z,81.53
2023-03-19T04:45:59.545Z,81.52
2023-03-19T04:48:27.509Z,81.79
2023-03-19T04:50:57.129Z,81.85
2023-03-19T04:53:25.627Z,81.96
2023-03-19T04:55:53.476Z,81.66
2023-03-19T04:58:21.869Z,81.87
2023-03-19T05:00:51.025Z,81.75
2023-03-19T05:03:18.951Z,81.64
2023-03-19T05:05:46.822Z,81.95
2023-03-19T05:08:14.679Z,81.69
2023-03-19T05:10:42.713Z,81.84
2023-03-19T05:13:10.462Z,81.81
2023-03-19T05:15:38.806Z,82.16
2023-03-19T05:18:08.714Z,81.84
2023-03-19T05:20:37.233Z,81.72
2023-03-19T05:23:05.362Z,81.78
2023-03-19T05:25:35.366Z,81.81
2023-03-19T05:28:03.286Z,81.84
2023-03-19T05:30:31.687Z,82.00
2023-03-19T05:32:59.863Z,81.94
2023-03-19T05:35:30.569Z,81.85
2023-03-19T05:37:58.904Z,82.06
2023-03-19T05:40:28.002Z,81.77
2023-03-19T05:42:55.843Z,81.83
2023-03-19T05:45:23.592Z,81.84
2023-03-19T05:47:51.382Z,81.98
2023-03-19T05:50:19.849Z,81.90
2023-03-19T05:52:49.093Z,82.03
2023-03-19T05:55:17.451Z,82.08
2023-03-19T05:57:45.582Z,82.12
2023-03-19T06:00:14.898Z,82.13
2023-03-19T06:02:44.107Z,82.14
2023-03-19T06:05:12.333Z,82.07
2023-03-19T06:07:40.081Z,82.04
2023-03-19T06:10:10.825Z,82.12
2023-03-19T06:12:38.561Z,82.20
2023-03-19T06:15:07.508Z,82.29
2023-03-19T06:17:35.358Z,82.04
2023-03-19T06:20:03.450Z,82.43
2023-03-19T06:22:31.301Z,82.47
2023-03-19T06:24:59.126Z,82.45
2023-03-19T06:27:28.253Z,82.27
2023-03-19T06:29:56.102Z,82.13
2023-03-19T06:32:23.903Z,82.47
2023-03-19T06:34:51.768Z,82.63
2023-03-19T06:37:19.547Z,82.37
2023-03-19T06:39:47.398Z,82.53
2023-03-19T06:42:15.367Z,82.16
2023-03-19T06:44:44.582Z,82.22
2023-03-19T06:47:12.781Z,82.02
2023-03-19T06:49:40.741Z,82.54
2023-03-19T06:52:08.854Z,82.32
2023-03-19T06:54:38.354Z,82.45
2023-03-19T06:57:06.412Z,82.79
2023-03-19T06:59:34.181Z,82.08
2023-03-19T07:02:03.498Z,82.92
2023-03-19T07:04:31.397Z,82.50
2023-03-19T07:06:59.125Z,83.00
2023-03-19T07:09:27.490Z,82.84
2023-03-19T07:11:55.311Z,82.43
2023-03-19T07:14:23.219Z,82.76
2023-03-19T07:16:51.081Z,82.92
2023-03-19T07:19:20.658Z,82.57
2023-03-19T07:21:48.468Z,82.61
2023-03-19T07:24:16.489Z,82.97
2023-03-19T07:26:44.864Z,82.42
2023-03-19T07:29:12.671Z,82.54
2023-03-19T07:31:41.031Z,82.50
2023-03-19T07:34:09.058Z,82.82
2023-03-19T07:36:38.146Z,82.41
2023-03-19T07:39:06.017Z,83.03
2023-03-19T07:41:33.798Z,82.47
2023-03-19T07:44:01.523Z,82.86
2023-03-19T07:46:29.421Z,82.47
2023-03-19T07:48:57.247Z,82.59
2023-03-19T07:51:25.074Z,82.55
2023-03-19T07:53:54.301Z,82.40
2023-03-19T07:56:22.071Z,82.38
2023-03-19T07:58:49.948Z,82.62
2023-03-19T08:01:17.821Z,82.98
2023-03-19T08:03:45.576Z,83.14
2023-03-19T08:06:13.829Z,82.48
2023-03-19T08:08:41.782Z,82.61
2023-03-19T08:11:11.700Z,83.05
2023-03-19T08:13:39.444Z,82.62
2023-03-19T08:16:07.621Z,83.09
2023-03-19T08:18:35.876Z,82.86
2023-03-19T08:21:03.926Z,83.02
2023-03-19T08:23:31.886Z,82.68
2023-03-19T08:25:59.666Z,82.76
2023-03-19T08:28:28.880Z,82.83
2023-03-19T08:30:56.884Z,82.88
2023-03-19T08:33:24.917Z,82.81
2023-03-19T08:35:53.118Z,82.99
2023-03-19T08:38:21.105Z,82.98
2023-03-19T08:40:49.178Z,82.59
2023-03-19T08:43:16.952Z,82.76
2023-03-19T08:45:46.181Z,82.93
2023-03-19T08:48:13.934Z,83.04
2023-03-19T08:50:41.818Z,82.84
2023-03-19T08:53:09.682Z,82.72
2023-03-19T08:55:37.666Z,83.09
2023-03-19T08:58:05.536Z,82.40
2023-03-19T09:00:33.584Z,82.67
2023-03-19T09:03:02.813Z,82.82
2023-03-19T09:05:30.613Z,82.83
2023-03-19T09:07:58.470Z,82.75
2023-03-19T09:10:26.568Z,82.56
2023-03-19T09:12:54.423Z,82.80
2023-03-19T09:15:22.214Z,82.68
2023-03-19T09:17:50.022Z,82.76
2023-03-19T09:20:19.364Z,83.20
2023-03-19T09:22:47.391Z,82.89
2023-03-19T09:25:15.726Z,82.79
2023-03-19T09:27:43.550Z,82.79
2023-03-19T09:30:13.331Z,82.75
2023-03-19T09:32:41.437Z,82.78
2023-03-19T09:35:10.063Z,82.60
2023-03-19T09:37:39.171Z,82.87
2023-03-19T09:40:08.882Z,82.68
2023-03-19T09:42:50.078Z,82.46
2023-03-19T09:45:19.912Z,82.63
2023-03-19T09:47:50.920Z,82.52
2023-03-19T09:50:22.481Z,82.55
2023-03-19T09:52:57.759Z,82.49
2023-03-19T09:55:42.163Z,82.54
2023-03-19T09:58:16.429Z,82.63
2023-03-19T10:00:47.875Z,82.64
2023-03-19T10:03:30.981Z,82.28
2023-03-19T10:06:07.883Z,82.75
2023-03-19T10:08:50.533Z,82.53
2023-03-19T10:11:36.497Z,82.36
2023-03-19T10:14:18.718Z,82.39
2023-03-19T10:16:50.207Z,82.19
2023-03-19T10:19:23.413Z,82.48
2023-03-19T10:21:57.079Z,82.99
2023-03-19T10:24:31.392Z,82.37
2023-03-19T10:27:02.953Z,82.17
2023-03-19T10:29:30.689Z,82.55
2023-03-19T10:32:12.591Z,82.76
2023-03-19T10:34:43.368Z,82.78
2023-03-19T10:37:17.297Z,82.46
2023-03-19T10:39:48.045Z,82.90
2023-03-19T10:42:40.163Z,81.73
2023-03-19T10:45:20.385Z,82.20
2023-03-19T10:47:48.470Z,82.46
2023-03-19T10:50:19.372Z,82.17
2023-03-19T10:52:52.526Z,82.34
2023-03-19T10:55:26.241Z,82.25
2023-03-19T10:58:02.731Z,82.34
2023-03-19T11:00:33.502Z,81.99
2023-03-19T11:03:04.728Z,82.04
2023-03-19T11:05:35.340Z,81.82
2023-03-19T11:08:04.941Z,82.14
2023-03-19T11:10:35.960Z,82.12
2023-03-19T11:13:07.410Z,82.14
2023-03-19T11:15:38.002Z,82.21
2023-03-19T11:18:16.946Z,81.94
2023-03-19T11:20:50.749Z,82.04
2023-03-19T11:23:20.542Z,81.96
2023-03-19T11:25:52.598Z,81.96
2023-03-19T11:28:25.647Z,81.91
2023-03-19T11:31:00.184Z,82.08
2023-03-19T11:33:45.744Z,82.19
2023-03-19T11:36:19.300Z,81.79
2023-03-19T11:39:03.792Z,82.10
2023-03-19T11:41:50.808Z,81.54
2023-03-19T11:44:27.408Z,81.91
2023-03-19T11:47:06.836Z,82.17
2023-03-19T11:49:48.225Z,81.43
2023-03-19T11:52:22.020Z,82.14
2023-03-19T11:55:06.043Z,81.42
2023-03-19T11:57:54.671Z,81.61
2023-03-19T12:00:31.352Z,81.58
2023-03-19T12:03:37.944Z,81.48
2023-03-19T12:06:12.164Z,81.31
2023-03-19T12:08:46.588Z,81.33
2023-03-19T12:11:25.413Z,81.95
2023-03-19T12:14:11.045Z,81.76
2023-03-19T12:16:57.406Z,81.40
2023-03-19T12:19:38.860Z,81.22
2023-03-19T12:22:18.000Z,81.09
2023-03-19T12:25:04.326Z,81.27
2023-03-19T12:27:38.384Z,80.87
2023-03-19T12:30:20.363Z,81.17
2023-03-19T12:33:11.107Z,81.24
2023-03-19T12:35:40.344Z,81.69
2023-03-19T12:38:16.620Z,81.31
2023-03-19T12:40:49.870Z,81.06
2023-03-19T12:43:23.460Z,80.72
2023-03-19T12:45:59.216Z,81.21
2023-03-19T12:48:30.596Z,81.10
2023-03-19T12:51:05.496Z,80.77
2023-03-19T12:53:41.833Z,80.15
2023-03-19T12:56:15.977Z,80.59
2023-03-19T12:58:54.570Z,80.64
2023-03-19T13:01:28.146Z,80.72
2023-03-19T13:04:00.395Z,80.46
2023-03-19T13:06:32.191Z,80.34
2023-03-19T13:09:06.299Z,80.72
2023-03-19T13:11:43.152Z,80.50
2023-03-19T13:14:20.998Z,80.53
2023-03-19T13:16:57.498Z,80.81
2023-03-19T13:19:32.054Z,80.78
2023-03-19T13:22:04.129Z,80.25
2023-03-19T13:24:35.663Z,80.72
2023-03-19T13:27:04.152Z,80.42
2023-03-19T13:29:33.948Z,80.44
2023-03-19T13:32:05.926Z,80.38
2023-03-19T13:34:35.901Z,80.65
2023-03-19T13:37:13.099Z,80.66
2023-03-19T13:39:42.182Z,80.10
2023-03-19T13:42:36.264Z,80.25
2023-03-19T13:45:05.412Z,80.26
2023-03-19T13:47:44.514Z,80.20
2023-03-19T13:50:23.539Z,80.22
2023-03-19T13:52:53.563Z,80.01
2023-03-19T13:55:34.591Z,79.93
2023-03-19T13:58:27.865Z,80.07
2023-03-19T14:01:01.348Z,80.08
2023-03-19T14:03:33.297Z,80.08
2023-03-19T14:06:01.803Z,79.82
2023-03-19T14:08:33.694Z,79.94
2023-03-19T14:11:03.696Z,80.12
2023-03-19T14:13:35.926Z,79.90
2023-03-19T14:16:17.871Z,80.26
2023-03-19T14:18:49.694Z,79.90
2023-03-19T14:21:32.742Z,79.87
2023-03-19T14:27:21.299Z,80.09
2023-03-19T14:29:51.016Z,79.95
2023-03-19T14:32:24.729Z,79.56
2023-03-19T14:34:56.078Z,80.00
2023-03-19T14:37:28.295Z,79.46
2023-03-19T14:40:00.557Z,79.83
2023-03-19T14:42:32.266Z,79.61
2023-03-19T14:45:30.387Z,79.62
2023-03-19T14:48:10.414Z,80.07
2023-03-19T14:51:03.929Z,79.92
2023-03-19T14:53:40.147Z,79.80
2023-03-19T14:56:14.822Z,79.86
2023-03-19T14:58:50.623Z,79.67
2023-03-19T15:01:19.615Z,80.05
2023-03-19T15:03:52.864Z,80.22
2023-03-19T15:06:22.384Z,79.71
2023-03-19T15:08:51.178Z,79.77
2023-03-19T15:11:34.570Z,79.66
2023-03-19T15:14:19.879Z,79.45
2023-03-19T15:17:00.641Z,79.63
2023-03-19T15:19:32.534Z,79.77
2023-03-19T15:22:14.062Z,79.63
2023-03-19T15:24:42.395Z,79.89
2023-03-19T15:27:21.983Z,79.65
2023-03-19T15:29:51.738Z,79.57
2023-03-19T15:32:52.034Z,79.54
2023-03-19T15:35:24.070Z,79.69
2023-03-19T15:37:58.516Z,79.39
2023-03-19T15:40:30.344Z,79.30
2023-03-19T15:43:01.207Z,79.40
2023-03-19T15:45:30.532Z,79.51
2023-03-19T15:48:03.783Z,79.41
2023-03-19T15:50:34.483Z,79.56
2023-03-19T15:53:07.377Z,79.17
2023-03-19T15:55:36.958Z,79.54
2023-03-19T15:58:09.130Z,79.56
2023-03-19T16:00:40.279Z,79.56
2023-03-19T16:03:12.275Z,79.22
2023-03-19T16:05:40.342Z,79.09
2023-03-19T16:08:19.778Z,79.47
2023-03-19T16:10:48.224Z,79.56
2023-03-19T16:13:27.851Z,79.04
2023-03-19T16:16:06.871Z,79.03
2023-03-19T16:18:43.538Z,79.02
2023-03-19T16:21:16.664Z,79.00
2023-03-19T16:23:51.122Z,79.39
2023-03-19T16:26:23.199Z,79.29
2023-03-19T16:28:59.885Z,79.46
2023-03-19T16:31:32.098Z,79.14
2023-03-19T16:34:00.466Z,78.84
2023-03-19T16:36:31.252Z,79.44
2023-03-19T16:39:23.755Z,78.79
2023-03-19T16:42:15.754Z,79.14
2023-03-19T16:44:45.370Z,79.07
2023-03-19T16:47:18.320Z,79.04
2023-03-19T16:49:47.531Z,79.05
2023-03-19T16:52:17.590Z,79.54
2023-03-19T16:54:47.524Z,78.95
2023-03-19T16:57:17.903Z,78.85
2023-03-19T16:59:46.987Z,78.90
2023-03-19T17:02:16.609Z,79.55
2023-03-19T17:04:44.751Z,79.16
2023-03-19T17:07:13.808Z,79.05
2023-03-19T17:09:41.740Z,78.88
2023-03-19T17:12:17.140Z,79.33
2023-03-19T17:14:45.178Z,78.91
2023-03-19T17:17:18.926Z,79.55
2023-03-19T17:19:48.271Z,79.15
2023-03-19T17:22:16.231Z,79.62
2023-03-19T17:24:44.151Z,79.21
2023-03-19T17:27:13.388Z,79.51
2023-03-19T17:29:41.172Z,79.18
2023-03-19T17:32:18.962Z,79.15
2023-03-19T17:34:47.062Z,79.20
2023-03-19T17:37:15.427Z,79.12
2023-03-19T17:39:45.745Z,78.88
2023-03-19T17:42:20.914Z,79.00
2023-03-19T17:44:49.536Z,79.44
2023-03-19T17:47:19.572Z,79.02
2023-03-19T17:49:47.604Z,79.27
2023-03-19T17:52:17.276Z,78.85
2023-03-19T17:54:45.512Z,78.82
2023-03-19T17:57:14.810Z,79.38
2023-03-19T17:59:43.996Z,79.48
2023-03-19T18:02:25.668Z,79.02
2023-03-19T18:04:53.633Z,78.67
2023-03-19T18:07:21.393Z,79.13
2023-03-19T18:09:49.141Z,79.01
2023-03-19T18:12:17.078Z,79.13
2023-03-19T18:14:46.328Z,79.51
2023-03-19T18:17:17.902Z,79.56
2023-03-19T18:19:47.644Z,79.51
2023-03-19T18:22:17.241Z,79.20
2023-03-19T18:24:46.185Z,79.77
2023-03-19T18:27:14.652Z,79.22
2023-03-19T18:29:42.419Z,79.66
2023-03-19T18:32:17.080Z,78.80
2023-03-19T18:34:45.000Z,79.43
2023-03-19T18:37:17.080Z,79.28
2023-03-19T18:39:44.898Z,78.90
2023-03-19T18:42:14.402Z,79.54
2023-03-19T18:44:43.815Z,79.65
2023-03-19T18:47:16.304Z,79.49
2023-03-19T18:49:45.570Z,79.35
2023-03-19T18:52:19.301Z,79.25
2023-03-19T18:54:47.688Z,79.48
2023-03-19T18:57:17.090Z,78.88
2023-03-19T18:59:45.083Z,78.98
2023-03-19T19:02:29.402Z,78.98
2023-03-19T19:04:57.214Z,78.84
2023-03-19T19:07:25.013Z,79.00
2023-03-19T19:09:52.819Z,79.17
2023-03-19T19:12:21.171Z,79.74
2023-03-19T19:14:49.505Z,79.43
2023-03-19T19:17:19.184Z,79.04
2023-03-19T19:19:48.293Z,79.18
2023-03-19T19:22:16.941Z,79.14
2023-03-19T19:24:45.424Z,79.60
2023-03-19T19:27:18.093Z,78.90
2023-03-19T19:29:47.394Z,79.10
2023-03-19T19:32:25.681Z,79.15
2023-03-19T19:34:55.015Z,79.59
2023-03-19T19:37:23.582Z,79.36
2023-03-19T19:39:51.888Z,79.25
2023-03-19T19:42:22.181Z,79.69
2023-03-19T19:44:54.144Z,79.06
2023-03-19T19:47:22.039Z,79.61
2023-03-19T19:49:50.956Z,79.23
2023-03-19T19:52:20.672Z,79.15
2023-03-19T19:54:48.623Z,79.47
2023-03-19T19:57:19.633Z,79.51
2023-03-19T19:59:47.460Z,79.72
2023-03-19T20:02:23.140Z,79.21
2023-03-19T20:04:50.965Z,79.26
2023-03-19T20:07:20.144Z,79.43
2023-03-19T20:09:48.875Z,79.54
2023-03-19T20:12:22.355Z,79.90
2023-03-19T20:14:51.418Z,79.50
2023-03-19T20:17:20.908Z,79.49
2023-03-19T20:19:49.065Z,79.24
2023-03-19T20:22:16.930Z,79.59
2023-03-19T20:24:50.271Z,79.49
2023-03-19T20:27:22.327Z,79.97
2023-03-19T20:29:50.707Z,79.75
2023-03-19T20:32:28.280Z,80.05
2023-03-19T20:34:56.076Z,79.81
2023-03-19T20:37:23.794Z,79.90
2023-03-19T20:39:53.019Z,79.84
2023-03-19T20:42:21.300Z,79.50
2023-03-19T20:44:49.570Z,79.56
2023-03-19T20:47:19.410Z,80.02
2023-03-19T20:49:47.367Z,79.92
2023-03-19T20:52:16.392Z,79.57
2023-03-19T20:54:44.833Z,79.76
2023-03-19T20:57:16.675Z,79.89
2023-03-19T20:59:46.948Z,79.84
2023-03-19T21:02:19.893Z,79.70
2023-03-19T21:04:47.929Z,79.61
2023-03-19T21:07:28.644Z,79.64
2023-03-19T21:09:57.215Z,79.72
2023-03-19T21:12:29.422Z,79.99
2023-03-19T21:14:58.025Z,80.12
2023-03-19T21:17:27.344Z,79.76
2023-03-19T21:19:55.857Z,79.96
2023-03-19T21:22:26.500Z,79.78
2023-03-19T21:25:03.216Z,79.95
2023-03-19T21:27:34.897Z,79.53
2023-03-19T21:30:04.162Z,80.03
2023-03-19T21:32:32.125Z,79.96
2023-03-19T21:35:00.035Z,79.86
2023-03-19T21:37:27.984Z,79.90
2023-03-19T21:39:55.858Z,80.02
2023-03-19T21:42:24.374Z,80.21
2023-03-19T21:44:59.893Z,80.18
2023-03-19T21:47:27.691Z,79.97
2023-03-19T21:49:55.583Z,80.24
2023-03-19T21:52:23.339Z,80.20
2023-03-19T21:54:51.179Z,80.14
2023-03-19T21:57:19.400Z,79.92
2023-03-19T21:59:47.699Z,80.12
2023-03-19T22:02:39.595Z,79.99
2023-03-19T22:05:16.841Z,80.15
2023-03-19T22:07:44.665Z,80.08
2023-03-19T22:10:12.665Z,80.09
2023-03-19T22:12:42.653Z,80.26
2023-03-19T22:15:29.332Z,80.31
2023-03-19T22:17:59.877Z,80.03
2023-03-19T22:20:27.639Z,80.07
2023-03-19T22:22:56.475Z,80.13
2023-03-19T22:25:28.375Z,80.18
2023-03-19T22:27:56.831Z,80.08
2023-03-19T22:30:33.953Z,80.25
2023-03-19T22:33:04.066Z,80.52
2023-03-19T22:35:31.968Z,80.44
2023-03-19T22:37:59.810Z,80.56
2023-03-19T22:40:27.880Z,80.20
2023-03-19T22:42:55.721Z,80.33
2023-03-19T22:45:27.334Z,80.13
2023-03-19T22:47:56.837Z,80.46
2023-03-19T22:50:28.297Z,80.51
2023-03-19T22:52:57.224Z,80.20
2023-03-19T22:55:25.158Z,80.44
2023-03-19T22:57:52.882Z,80.43
2023-03-19T23:00:23.846Z,80.54
2023-03-19T23:02:57.431Z,80.39
2023-03-19T23:05:29.677Z,80.36
2023-03-19T23:07:57.839Z,80.50
2023-03-19T23:10:28.697Z,80.49
2023-03-19T23:12:57.491Z,80.47
2023-03-19T23:15:27.394Z,80.52
2023-03-19T23:17:57.965Z,80.61
2023-03-19T23:20:28.629Z,80.48
2023-03-19T23:22:56.611Z,80.71
2023-03-19T23:25:28.621Z,80.54
2023-03-19T23:28:00.297Z,80.41
2023-03-19T23:30:31.501Z,80.59
2023-03-19T23:33:01.365Z,80.53
2023-03-19T23:35:32.402Z,80.52
2023-03-19T23:38:01.875Z,80.60
2023-03-19T23:40:33.077Z,80.59
2023-03-19T23:43:02.506Z,80.62
2023-03-19T23:45:34.678Z,80.71
2023-03-19T23:48:04.734Z,81.02
2023-03-19T23:50:34.449Z,80.42
2023-03-19T23:53:02.625Z,80.48
2023-03-19T23:55:31.150Z,80.63
2023-03-19T23:57:59.467Z,80.53
